首页
METAR-TAF:

METAR-TAF

机场 :

臺北松山機場

臺北, 台湾

纬度: 25-04N, 经度: 121-33E, 海拔: 6米

当前天气观测

该预报发布于39分钟前的03:00 UTC
风速11节,风向
温度 23°C
湿度 89%
气压 1006 hPa
能见度10公里或以上
少量云层高于800英尺
多云层高于1800英尺
多云层高于2500英尺
小雨

METAR: RCSS 280300Z 09011KT 9999 -RA FEW008 BKN018 BKN025 23/21 Q1006 NOSIG RMK A2972 RA AMT 0.8MM

时间: 11:39 (03:39 UTC)

预报

该预报发布于4小时和39分钟前的23:00 UTC
预报有效从28日的 00点(UTC)到 28日的 24点(UTC)
风速5节,风向
能见度10公里或以上
少量云层高于1200英尺
多云层高于3200英尺
短暂存在
从 28日的 00点(UTC)到 28日的 04点(UTC)
风速5节,风向西
能見度: 4000
少量云层高于600英尺
多云层高于1300英尺
少量云层高于1500英尺, 积雨云.
阵雨
短暂存在
从 28日的 04点(UTC)到 28日的 10点(UTC)
风速10节,风向

TAF: RCSS 272300Z 2800/2824 09005KT 9999 FEW012 BKN032 TEMPO 2800/2804 27005KT 4000 SHRA FEW006 BKN013 FEW015CB TEMPO 2804/2810 09010KT

超过4000个机场的气象观测和天气预报(METAR&TAF报告)。

可查询的气象台以黄色和红色小点在地图上表示。

将鼠标移到小点上方,可查看气象台名称。

然后点击查看天气观测和预报。

如需切换地图:点击带黑十字的绿色按钮放大地图;点击带横线的绿色按钮缩小地图;或者点击绿色箭头查看邻近地区的地图。


METAR-TAF: